Time;durP1;ratioP1;P1;durP2;ratioP2;P2;SDS_P1;SDS_P2;PMS_P1;PMS_P2;Temp;Humidity;BMP_temperature;BMP_pressure;BME280_temperature;BME280_humidity;BME280_pressure;Samples;Min_cycle;Max_cycle;Signal;HPM_P1;HPM_P2
2022/01/02 00:01:13;;;;;;;;;;;1.60;99.90;;;;;;5063795;28;20044;-50
2022/01/02 00:03:42;;;;;;;;;;;1.60;99.90;;;;;;5064814;28;19924;-51
2022/01/02 00:06:09;;;;;;;;;;;1.60;99.90;;;;;;5056094;28;19929;-49
2022/01/02 00:08:41;;;;;;;;;;;1.60;99.90;;;;;;5060155;28;19986;-50
2022/01/02 00:11:10;;;;;;;;;;;1.70;99.90;;;;;;5083696;28;19924;-50
2022/01/02 00:13:40;;;;;;;;;;;1.80;99.90;;;;;;5104837;28;19924;-50
2022/01/02 00:16:07;;;;;;;;;;;2.00;99.90;;;;;;5090399;28;20531;-51
2022/01/02 00:18:38;;;;;;;;;;;2.00;99.90;;;;;;5084265;28;19933;-51
2022/01/02 00:21:08;;;;;;;;;;;2.20;99.90;;;;;;5072666;28;19924;-51
2022/01/02 00:23:47;;;;;;;;;;;2.40;99.90;;;;;;5073137;28;20425;-50
2022/01/02 00:26:17;;;;;;;;;;;2.40;99.90;;;;;;5064104;28;19928;-50
2022/01/02 00:28:46;;;;;;;;;;;2.40;99.90;;;;;;5065409;28;19978;-50
2022/01/02 00:31:13;;;;;;;;;;;2.20;99.90;;;;;;5060715;28;19924;-50
2022/01/02 00:33:40;;;;;;;;;;;2.00;99.90;;;;;;5092898;28;19924;-51
2022/01/02 00:36:09;;;;;;;;;;;1.80;99.90;;;;;;5074011;28;19928;-52
2022/01/02 00:38:37;;;;;;;;;;;1.70;99.90;;;;;;5054742;28;20046;-50
2022/01/02 00:41:05;;;;;;;;;;;1.60;99.90;;;;;;5066491;28;19924;-51
2022/01/02 00:43:38;;;;;;;;;;;1.60;99.90;;;;;;5086806;28;20305;-50
2022/01/02 00:46:06;;;;;;;;;;;1.50;99.90;;;;;;5066479;28;19979;-50
2022/01/02 00:48:35;;;;;;;;;;;1.40;99.90;;;;;;5072798;28;19925;-49
2022/01/02 00:51:04;;;;;;;;;;;1.40;99.90;;;;;;5072746;28;19932;-51
2022/01/02 00:53:34;;;;;;;;;;;1.50;99.90;;;;;;5073262;28;20435;-51
2022/01/02 00:56:01;;;;;;;;;;;1.50;99.90;;;;;;5065980;28;19947;-51
2022/01/02 00:58:31;;;;;;;;;;;1.50;99.90;;;;;;5075654;28;19924;-51
2022/01/02 01:01:00;;;;;;;;;;;1.40;99.90;;;;;;5073206;28;19928;-51
2022/01/02 01:03:29;;;;;;;;;;;1.40;99.90;;;;;;5073302;28;19978;-51
2022/01/02 01:05:57;;;;;;;;;;;1.30;99.90;;;;;;5070043;28;19985;-51
2022/01/02 01:08:24;;;;;;;;;;;1.20;99.90;;;;;;5083079;28;19928;-51
2022/01/02 01:10:52;;;;;;;;;;;1.30;99.90;;;;;;5085912;28;20373;-51
2022/01/02 01:13:19;;;;;;;;;;;1.30;99.90;;;;;;5076456;28;19928;-51
2022/01/02 01:15:46;;;;;;;;;;;1.20;99.90;;;;;;5072846;28;19925;-51
2022/01/02 01:18:13;;;;;;;;;;;1.20;99.90;;;;;;5061961;28;19924;-51
2022/01/02 01:20:42;;;;;;;;;;;1.20;99.90;;;;;;5067171;28;20345;-51
2022/01/02 01:23:11;;;;;;;;;;;1.30;99.90;;;;;;5064232;28;20003;-51
2022/01/02 01:25:43;;;;;;;;;;;1.30;99.90;;;;;;5053593;28;19931;-51
2022/01/02 01:28:12;;;;;;;;;;;1.30;99.90;;;;;;5053205;28;19987;-51
2022/01/02 01:30:38;;;;;;;;;;;1.30;99.90;;;;;;5053249;28;19971;-50
2022/01/02 01:33:05;;;;;;;;;;;1.40;99.90;;;;;;5053345;28;19987;-50
2022/01/02 01:35:32;;;;;;;;;;;1.30;99.90;;;;;;5053424;28;19928;-51
2022/01/02 01:37:59;;;;;;;;;;;1.20;99.90;;;;;;5072125;28;19925;-51
2022/01/02 01:40:26;;;;;;;;;;;1.20;99.90;;;;;;5072735;28;20588;-51
2022/01/02 01:42:58;;;;;;;;;;;1.10;99.90;;;;;;5072570;28;19936;-51
2022/01/02 01:45:30;;;;;;;;;;;1.10;99.90;;;;;;5072911;28;20298;-51
2022/01/02 01:47:57;;;;;;;;;;;1.10;99.90;;;;;;5072345;28;20393;-51
2022/01/02 01:50:25;;;;;;;;;;;1.20;99.90;;;;;;5078018;28;19985;-51
2022/01/02 01:52:52;;;;;;;;;;;1.10;99.90;;;;;;5080713;28;19928;-51
2022/01/02 01:55:19;;;;;;;;;;;1.10;99.90;;;;;;5053457;28;19925;-51
2022/01/02 01:57:48;;;;;;;;;;;1.10;99.90;;;;;;5063425;28;20409;-51
2022/01/02 02:00:16;;;;;;;;;;;1.10;99.90;;;;;;5072634;28;19928;-51
2022/01/02 02:02:47;;;;;;;;;;;1.00;99.90;;;;;;5071319;28;19925;-51
2022/01/02 02:05:14;;;;;;;;;;;1.00;99.90;;;;;;5085010;28;20447;-51
2022/01/02 02:07:43;;;;;;;;;;;0.90;99.90;;;;;;5093249;28;19924;-51
2022/01/02 02:10:14;;;;;;;;;;;0.90;99.90;;;;;;5074734;28;19924;-51
2022/01/02 02:12:41;;;;;;;;;;;0.90;99.90;;;;;;5072701;28;20015;-51
2022/01/02 02:15:08;;;;;;;;;;;0.90;99.90;;;;;;5073382;28;19978;-50
2022/01/02 02:17:35;;;;;;;;;;;0.90;99.90;;;;;;5059133;28;19925;-51
2022/01/02 02:20:12;;;;;;;;;;;0.80;99.90;;;;;;5052696;28;20456;-51
2022/01/02 02:22:41;;;;;;;;;;;0.80;99.90;;;;;;5091196;28;19924;-51
2022/01/02 02:25:08;;;;;;;;;;;0.80;99.90;;;;;;5083063;28;19986;-51
2022/01/02 02:27:35;;;;;;;;;;;0.70;99.90;;;;;;5072273;28;19995;-51
2022/01/02 02:30:02;;;;;;;;;;;0.70;99.90;;;;;;5072287;28;19925;-51
2022/01/02 02:32:28;;;;;;;;;;;0.60;99.90;;;;;;5072306;28;20460;-51
2022/01/02 02:34:55;;;;;;;;;;;0.60;99.90;;;;;;5073955;28;19975;-51
2022/01/02 02:37:25;;;;;;;;;;;0.60;99.90;;;;;;5087897;28;19933;-51
2022/01/02 02:39:52;;;;;;;;;;;0.70;99.90;;;;;;5052213;28;20007;-51
2022/01/02 02:42:29;;;;;;;;;;;0.80;99.90;;;;;;5053903;28;19924;-51
2022/01/02 02:44:58;;;;;;;;;;;0.90;99.90;;;;;;5052388;28;19964;-51
2022/01/02 02:50:23;;;;;;;;;;;0.90;99.90;;;;;;5028773;28;19921;-52
2022/01/02 02:52:51;;;;;;;;;;;0.90;99.90;;;;;;5009889;28;19937;-51
2022/01/02 02:55:23;;;;;;;;;;;0.90;99.90;;;;;;5037076;28;20439;-51
2022/01/02 02:57:57;;;;;;;;;;;1.10;99.90;;;;;;5066447;28;19925;-51
2022/01/02 03:00:24;;;;;;;;;;;1.30;99.90;;;;;;5052428;28;19929;-51
2022/01/02 03:02:52;;;;;;;;;;;1.20;99.90;;;;;;5052331;28;19925;-51
2022/01/02 03:05:19;;;;;;;;;;;1.00;99.90;;;;;;5072308;28;19972;-50
2022/01/02 03:07:46;;;;;;;;;;;1.00;99.90;;;;;;5070473;28;19928;-51
2022/01/02 03:10:16;;;;;;;;;;;0.90;99.90;;;;;;5070800;28;19924;-51
2022/01/02 03:12:43;;;;;;;;;;;0.90;99.90;;;;;;5058504;28;19931;-51
2022/01/02 03:15:10;;;;;;;;;;;0.80;99.90;;;;;;5052289;28;19925;-51
2022/01/02 03:17:36;;;;;;;;;;;0.70;99.90;;;;;;5064819;28;20340;-51
2022/01/02 03:20:03;;;;;;;;;;;0.60;99.90;;;;;;5071902;28;19924;-51
2022/01/02 03:22:30;;;;;;;;;;;0.50;99.90;;;;;;5070193;28;19970;-51
2022/01/02 03:24:57;;;;;;;;;;;0.40;99.90;;;;;;5075974;28;19924;-51
2022/01/02 03:27:25;;;;;;;;;;;0.40;99.90;;;;;;5071971;28;19924;-51
2022/01/02 03:29:52;;;;;;;;;;;0.40;99.90;;;;;;5061840;28;19978;-51
2022/01/02 03:32:19;;;;;;;;;;;0.40;99.90;;;;;;5071908;28;19924;-51
2022/01/02 03:34:46;;;;;;;;;;;0.40;99.90;;;;;;5074651;28;20579;-52
2022/01/02 03:37:13;;;;;;;;;;;0.50;99.90;;;;;;5061036;28;19975;-51
2022/01/02 03:39:39;;;;;;;;;;;0.50;99.90;;;;;;5055377;28;19950;-51
2022/01/02 03:42:06;;;;;;;;;;;0.60;99.90;;;;;;5063308;28;20011;-51
2022/01/02 03:44:34;;;;;;;;;;;0.80;99.90;;;;;;5071156;28;20333;-51
2022/01/02 03:47:01;;;;;;;;;;;0.90;99.90;;;;;;5056540;28;19929;-51
2022/01/02 03:49:28;;;;;;;;;;;0.90;99.90;;;;;;5055017;28;19978;-51
2022/01/02 03:51:56;;;;;;;;;;;1.00;99.90;;;;;;5055106;28;19970;-51
2022/01/02 03:54:23;;;;;;;;;;;1.10;99.90;;;;;;5055458;28;19925;-51
2022/01/02 03:56:51;;;;;;;;;;;1.10;99.90;;;;;;5054916;28;19943;-51
2022/01/02 03:59:18;;;;;;;;;;;1.10;99.90;;;;;;5054748;28;19925;-51
2022/01/02 04:01:46;;;;;;;;;;;1.10;99.90;;;;;;5057871;28;19970;-50
2022/01/02 04:04:13;;;;;;;;;;;1.10;99.90;;;;;;5074702;28;19925;-51
2022/01/02 04:06:40;;;;;;;;;;;1.00;99.90;;;;;;5074796;28;19925;-50
2022/01/02 04:09:07;;;;;;;;;;;0.90;99.90;;;;;;5074667;28;19928;-50
2022/01/02 04:11:33;;;;;;;;;;;0.90;99.90;;;;;;5074880;28;19978;-51
2022/01/02 04:14:00;;;;;;;;;;;0.80;99.90;;;;;;5074653;28;19981;-50
2022/01/02 04:16:27;;;;;;;;;;;0.60;99.90;;;;;;5072791;28;19924;-50
2022/01/02 04:18:55;;;;;;;;;;;0.60;99.90;;;;;;5068604;28;19929;-50
2022/01/02 04:21:22;;;;;;;;;;;0.60;99.90;;;;;;5074496;28;19986;-50
2022/01/02 04:23:49;;;;;;;;;;;0.50;99.90;;;;;;5074947;28;19924;-50
2022/01/02 04:26:16;;;;;;;;;;;0.50;99.90;;;;;;5072641;28;19998;-50
2022/01/02 04:28:43;;;;;;;;;;;0.50;99.90;;;;;;5074127;28;20455;-50
2022/01/02 04:31:10;;;;;;;;;;;0.40;99.90;;;;;;5074225;28;19978;-50
2022/01/02 04:33:36;;;;;;;;;;;0.20;99.90;;;;;;5085286;28;20019;-50
2022/01/02 04:36:05;;;;;;;;;;;0.20;99.90;;;;;;5055390;28;19948;-50
2022/01/02 04:38:32;;;;;;;;;;;0.20;99.90;;;;;;5078296;28;20433;-50
2022/01/02 04:40:59;;;;;;;;;;;0.20;99.90;;;;;;5075726;28;19932;-50
2022/01/02 04:43:25;;;;;;;;;;;0.10;99.90;;;;;;5092580;28;19963;-50
2022/01/02 04:45:52;;;;;;;;;;;0.10;99.90;;;;;;5076899;28;19928;-50
2022/01/02 04:48:19;;;;;;;;;;;0.00;99.90;;;;;;5062361;28;20355;-50
2022/01/02 04:50:45;;;;;;;;;;;0.10;99.90;;;;;;5072524;28;19998;-50
2022/01/02 04:53:14;;;;;;;;;;;0.00;99.90;;;;;;5074186;28;19924;-50
2022/01/02 04:55:41;;;;;;;;;;;0.20;99.90;;;;;;5081965;28;19978;-50
2022/01/02 04:58:07;;;;;;;;;;;0.10;99.90;;;;;;5093810;28;19928;-50
2022/01/02 05:00:34;;;;;;;;;;;0.20;99.90;;;;;;5093429;28;19924;-50
2022/01/02 05:03:01;;;;;;;;;;;0.30;99.90;;;;;;5064705;28;19979;-50
2022/01/02 05:05:28;;;;;;;;;;;0.30;99.90;;;;;;5062853;28;19998;-51
2022/01/02 05:07:54;;;;;;;;;;;0.40;99.90;;;;;;5056011;28;19971;-50
2022/01/02 05:10:22;;;;;;;;;;;0.30;99.90;;;;;;5087052;28;20439;-50
2022/01/02 05:12:49;;;;;;;;;;;0.30;99.90;;;;;;5059545;28;19948;-50
2022/01/02 05:15:16;;;;;;;;;;;0.40;99.90;;;;;;5071980;28;19980;-50
2022/01/02 05:17:44;;;;;;;;;;;0.50;99.90;;;;;;5074233;28;19932;-50
2022/01/02 05:20:10;;;;;;;;;;;0.50;99.90;;;;;;5085164;28;19928;-51
2022/01/02 05:22:37;;;;;;;;;;;0.50;99.90;;;;;;5084985;28;19928;-49
2022/01/02 05:25:04;;;;;;;;;;;0.60;99.90;;;;;;5076669;28;20351;-50
2022/01/02 05:27:32;;;;;;;;;;;0.60;99.90;;;;;;5067279;28;19925;-50
2022/01/02 05:29:59;;;;;;;;;;;0.70;99.90;;;;;;5068257;28;20279;-50
2022/01/02 05:32:26;;;;;;;;;;;0.70;99.90;;;;;;5063345;28;19925;-50
2022/01/02 05:34:52;;;;;;;;;;;0.80;99.90;;;;;;5053247;28;19928;-50
2022/01/02 05:37:19;;;;;;;;;;;0.80;99.90;;;;;;5052415;28;20375;-50
2022/01/02 05:39:46;;;;;;;;;;;0.90;99.90;;;;;;5052893;28;19924;-51
2022/01/02 05:42:13;;;;;;;;;;;0.80;99.90;;;;;;5052776;28;20461;-50
2022/01/02 05:44:41;;;;;;;;;;;0.70;99.90;;;;;;5059075;28;19987;-50
2022/01/02 05:47:07;;;;;;;;;;;0.60;99.90;;;;;;5070151;28;20314;-51
2022/01/02 05:49:34;;;;;;;;;;;0.60;99.90;;;;;;5072493;28;19970;-50
2022/01/02 05:52:01;;;;;;;;;;;0.60;99.90;;;;;;5072710;28;19994;-51
2022/01/02 05:54:28;;;;;;;;;;;0.60;99.90;;;;;;5072628;28;20455;-51
2022/01/02 05:56:54;;;;;;;;;;;0.60;99.90;;;;;;5072582;28;19928;-51
2022/01/02 05:59:21;;;;;;;;;;;0.70;99.90;;;;;;5074498;28;19924;-51
2022/01/02 06:01:49;;;;;;;;;;;0.70;99.90;;;;;;5054723;28;19983;-51
2022/01/02 06:04:16;;;;;;;;;;;0.70;99.90;;;;;;5053808;28;19928;-51
2022/01/02 06:06:44;;;;;;;;;;;0.70;99.90;;;;;;5052547;28;19925;-51
2022/01/02 06:09:11;;;;;;;;;;;0.70;99.90;;;;;;5052292;28;19933;-50
2022/01/02 06:11:37;;;;;;;;;;;0.90;99.90;;;;;;5055111;28;19925;-50
2022/01/02 06:14:04;;;;;;;;;;;1.00;99.90;;;;;;5065682;28;19924;-51
2022/01/02 06:16:32;;;;;;;;;;;1.10;99.90;;;;;;5052585;28;19925;-51
2022/01/02 06:19:00;;;;;;;;;;;1.20;99.90;;;;;;5064608;28;19925;-51
2022/01/02 06:21:27;;;;;;;;;;;1.30;99.90;;;;;;5072420;28;19978;-50
2022/01/02 06:23:54;;;;;;;;;;;1.20;99.90;;;;;;5072323;28;19929;-50
2022/01/02 06:26:21;;;;;;;;;;;1.20;99.90;;;;;;5066388;28;19982;-51
2022/01/02 06:28:47;;;;;;;;;;;1.30;99.90;;;;;;5052095;28;19932;-51
2022/01/02 06:31:14;;;;;;;;;;;1.40;99.90;;;;;;5053172;28;19971;-51
2022/01/02 06:33:41;;;;;;;;;;;1.50;99.90;;;;;;5052015;28;20374;-51
2022/01/02 06:36:09;;;;;;;;;;;1.40;99.90;;;;;;5051622;28;19929;-50
2022/01/02 06:38:36;;;;;;;;;;;1.50;99.90;;;;;;5051950;28;19971;-51
2022/01/02 06:41:03;;;;;;;;;;;1.60;99.90;;;;;;5053218;28;19925;-52
2022/01/02 06:43:32;;;;;;;;;;;1.60;99.90;;;;;;5052017;28;20405;-51
2022/01/02 06:45:58;;;;;;;;;;;1.50;99.90;;;;;;5051908;28;19925;-54
2022/01/02 06:48:25;;;;;;;;;;;1.50;99.90;;;;;;5052914;28;19979;-51
2022/01/02 06:50:52;;;;;;;;;;;1.60;99.90;;;;;;5062356;28;19928;-51
2022/01/02 06:53:20;;;;;;;;;;;1.50;99.90;;;;;;5070555;28;19931;-51
2022/01/02 06:55:47;;;;;;;;;;;1.50;99.90;;;;;;5071574;28;19970;-52
2022/01/02 06:58:14;;;;;;;;;;;1.50;99.90;;;;;;5071571;28;19924;-51
2022/01/02 07:00:41;;;;;;;;;;;1.40;99.90;;;;;;5071819;28;19931;-51
2022/01/02 07:03:08;;;;;;;;;;;1.30;99.90;;;;;;5070627;28;19928;-51
2022/01/02 07:05:35;;;;;;;;;;;1.30;99.90;;;;;;5069683;28;19924;-51
2022/01/02 07:08:02;;;;;;;;;;;1.30;99.90;;;;;;5070508;28;19924;-51
2022/01/02 07:10:30;;;;;;;;;;;1.30;99.90;;;;;;5071633;28;19936;-51
2022/01/02 07:12:57;;;;;;;;;;;1.30;99.90;;;;;;5071042;28;19924;-51
2022/01/02 07:15:24;;;;;;;;;;;1.30;99.90;;;;;;5075522;28;20374;-51
2022/01/02 07:17:51;;;;;;;;;;;1.40;99.90;;;;;;5088485;28;20044;-52
2022/01/02 07:20:17;;;;;;;;;;;1.60;99.90;;;;;;5085776;28;19968;-51
2022/01/02 07:22:47;;;;;;;;;;;1.60;99.90;;;;;;5075230;28;20386;-51
2022/01/02 07:25:13;;;;;;;;;;;1.70;99.90;;;;;;5074973;28;19928;-51
2022/01/02 07:27:41;;;;;;;;;;;1.70;99.90;;;;;;5075444;28;19924;-51
2022/01/02 07:30:09;;;;;;;;;;;1.70;99.90;;;;;;5074931;28;19928;-51
2022/01/02 07:32:37;;;;;;;;;;;1.70;99.90;;;;;;5061751;28;19928;-51
2022/01/02 07:35:06;;;;;;;;;;;1.80;99.90;;;;;;5075003;28;19924;-51
2022/01/02 07:37:33;;;;;;;;;;;1.80;99.90;;;;;;5075033;28;19930;-51
2022/01/02 07:39:59;;;;;;;;;;;2.00;99.90;;;;;;5074693;28;19936;-51
2022/01/02 07:42:26;;;;;;;;;;;1.80;99.90;;;;;;5078448;28;19924;-51
2022/01/02 07:44:54;;;;;;;;;;;1.90;99.90;;;;;;5074214;28;19970;-51
2022/01/02 07:47:21;;;;;;;;;;;1.80;99.90;;;;;;5069648;28;19971;-51
2022/01/02 07:49:48;;;;;;;;;;;1.70;99.90;;;;;;5078962;22;19927;-50
2022/01/02 07:52:15;;;;;;;;;;;1.70;99.90;;;;;;5114547;28;19928;-50
2022/01/02 07:54:41;;;;;;;;;;;1.60;99.90;;;;;;5114404;28;19977;-51
2022/01/02 07:57:08;;;;;;;;;;;1.60;99.90;;;;;;5114438;28;20442;-50
2022/01/02 07:59:35;;;;;;;;;;;1.60;99.90;;;;;;5114373;28;19985;-49
2022/01/02 08:02:03;;;;;;;;;;;1.50;99.90;;;;;;5111841;28;19923;-51
2022/01/02 08:04:30;;;;;;;;;;;1.40;99.90;;;;;;5114086;28;19946;-50
2022/01/02 08:06:57;;;;;;;;;;;1.40;99.90;;;;;;5114694;28;20008;-50
2022/01/02 08:09:23;;;;;;;;;;;1.70;99.90;;;;;;5113801;28;19969;-50
2022/01/02 08:11:50;;;;;;;;;;;1.70;99.90;;;;;;5114238;28;20034;-51
2022/01/02 08:14:17;;;;;;;;;;;1.70;99.90;;;;;;5114286;28;19934;-51
2022/01/02 08:16:44;;;;;;;;;;;1.70;99.90;;;;;;5114114;28;19935;-51
2022/01/02 08:19:13;;;;;;;;;;;1.60;99.90;;;;;;5113728;27;19969;-51
2022/01/02 08:21:39;;;;;;;;;;;1.70;99.90;;;;;;5114269;28;19928;-51
2022/01/02 08:24:07;;;;;;;;;;;2.00;99.90;;;;;;5114152;28;20436;-50
2022/01/02 08:26:33;;;;;;;;;;;1.90;99.90;;;;;;5113824;28;20410;-49
2022/01/02 08:29:01;;;;;;;;;;;2.00;99.90;;;;;;5113421;28;19932;-49
2022/01/02 08:31:28;;;;;;;;;;;1.80;99.90;;;;;;5114172;28;20044;-50
2022/01/02 08:33:55;;;;;;;;;;;1.80;99.90;;;;;;5113305;28;20207;-51
2022/01/02 08:36:23;;;;;;;;;;;1.70;99.90;;;;;;5113992;28;19931;-49
2022/01/02 08:38:50;;;;;;;;;;;1.80;99.90;;;;;;5113883;28;19923;-50
2022/01/02 08:41:17;;;;;;;;;;;1.70;99.90;;;;;;5113272;28;19931;-51
2022/01/02 08:43:44;;;;;;;;;;;1.90;99.90;;;;;;5112716;28;19970;-50
2022/01/02 08:46:11;;;;;;;;;;;2.00;99.90;;;;;;5109628;28;20442;-51
2022/01/02 08:48:37;;;;;;;;;;;2.10;99.90;;;;;;5113844;28;19981;-50
2022/01/02 08:51:05;;;;;;;;;;;2.20;99.90;;;;;;5111850;28;20304;-49
2022/01/02 08:53:34;;;;;;;;;;;2.20;99.90;;;;;;5105980;28;20514;-47
2022/01/02 08:56:01;;;;;;;;;;;2.30;99.90;;;;;;5111680;28;19924;-48
2022/01/02 08:58:28;;;;;;;;;;;2.60;99.90;;;;;;5112449;28;20405;-50
2022/01/02 09:00:56;;;;;;;;;;;2.90;99.90;;;;;;5113283;28;19923;-51
2022/01/02 09:03:23;;;;;;;;;;;3.20;99.90;;;;;;5113125;28;19932;-50
2022/01/02 09:05:50;;;;;;;;;;;3.30;99.90;;;;;;5113364;28;19924;-51
2022/01/02 09:08:17;;;;;;;;;;;3.40;99.90;;;;;;5112999;28;19996;-50
2022/01/02 09:10:45;;;;;;;;;;;3.40;99.90;;;;;;5113116;28;19924;-50
2022/01/02 09:13:12;;;;;;;;;;;3.40;99.90;;;;;;5113294;28;19927;-49
2022/01/02 09:15:39;;;;;;;;;;;3.30;99.90;;;;;;5112765;28;20006;-51
2022/01/02 09:18:06;;;;;;;;;;;3.30;99.90;;;;;;5108632;28;19930;-49
2022/01/02 09:20:33;;;;;;;;;;;3.30;99.90;;;;;;5104024;28;19927;-51
2022/01/02 09:22:59;;;;;;;;;;;3.40;99.90;;;;;;5112937;28;19924;-50
2022/01/02 09:25:26;;;;;;;;;;;3.50;99.90;;;;;;5112013;28;19945;-50
2022/01/02 09:27:54;;;;;;;;;;;3.50;99.90;;;;;;5109172;28;19923;-50
2022/01/02 09:30:21;;;;;;;;;;;3.30;99.90;;;;;;5112460;28;19928;-50
2022/01/02 09:32:48;;;;;;;;;;;3.20;99.90;;;;;;5112324;28;19927;-51
2022/01/02 09:35:15;;;;;;;;;;;3.10;99.90;;;;;;5112544;28;20442;-50
2022/01/02 09:37:41;;;;;;;;;;;3.00;99.90;;;;;;5112629;28;19928;-50
2022/01/02 09:40:08;;;;;;;;;;;2.90;99.90;;;;;;5112334;28;19924;-51
2022/01/02 09:42:37;;;;;;;;;;;3.00;99.90;;;;;;5112376;28;20018;-50
2022/01/02 09:45:06;;;;;;;;;;;2.90;99.90;;;;;;5111886;28;20389;-50
2022/01/02 09:47:33;;;;;;;;;;;3.00;99.90;;;;;;5112493;28;19924;-50
2022/01/02 09:50:01;;;;;;;;;;;3.10;99.90;;;;;;5111879;28;19927;-50
2022/01/02 09:52:28;;;;;;;;;;;3.40;99.90;;;;;;5112286;28;19932;-50
2022/01/02 09:54:54;;;;;;;;;;;3.60;99.90;;;;;;5111949;28;20368;-50
2022/01/02 09:57:21;;;;;;;;;;;3.70;99.90;;;;;;5112072;28;19976;-50
2022/01/02 09:59:48;;;;;;;;;;;3.60;99.90;;;;;;5112195;28;19927;-50
2022/01/02 10:02:16;;;;;;;;;;;3.50;99.90;;;;;;5111833;28;20306;-49
2022/01/02 10:04:44;;;;;;;;;;;3.40;99.90;;;;;;5111727;28;19930;-50
2022/01/02 10:07:26;;;;;;;;;;;3.40;99.90;;;;;;5112106;28;20004;-51
2022/01/02 10:09:53;;;;;;;;;;;3.50;99.90;;;;;;5104740;28;19931;-50
2022/01/02 10:12:21;;;;;;;;;;;3.60;99.90;;;;;;5110422;28;19932;-52
2022/01/02 10:15:09;;;;;;;;;;;3.50;99.90;;;;;;5110880;28;19980;-51
2022/01/02 10:20:34;;;;;;;;;;;4.70;99.90;;;;;;5089087;28;19920;-51
2022/01/02 10:23:05;;;;;;;;;;;5.80;99.90;;;;;;5089064;28;20028;-52
2022/01/02 10:25:43;;;;;;;;;;;5.70;99.90;;;;;;5076673;28;19936;-52
2022/01/02 10:28:27;;;;;;;;;;;5.80;99.90;;;;;;5068284;28;20561;-52
2022/01/02 10:30:54;;;;;;;;;;;6.00;99.90;;;;;;5087898;28;19925;-53
2022/01/02 10:33:22;;;;;;;;;;;5.90;99.90;;;;;;5067798;28;19990;-51
2022/01/02 10:35:57;;;;;;;;;;;5.80;99.90;;;;;;5067072;28;19925;-50
2022/01/02 10:38:24;;;;;;;;;;;5.60;99.90;;;;;;5076357;28;20421;-52
2022/01/02 10:40:51;;;;;;;;;;;5.70;99.90;;;;;;5077238;28;20386;-48
2022/01/02 10:43:25;;;;;;;;;;;5.90;99.90;;;;;;5073183;28;19928;-47
2022/01/02 10:45:53;;;;;;;;;;;6.20;99.90;;;;;;5068230;28;19925;-50
2022/01/02 10:48:30;;;;;;;;;;;6.50;99.90;;;;;;5082643;28;19925;-49
2022/01/02 10:51:02;;;;;;;;;;;6.40;99.90;;;;;;5074756;28;20372;-49
2022/01/02 10:53:30;;;;;;;;;;;6.40;99.90;;;;;;5077241;28;19924;-49
2022/01/02 10:55:56;;;;;;;;;;;6.30;99.90;;;;;;5080773;28;19924;-47
2022/01/02 10:58:25;;;;;;;;;;;5.90;99.90;;;;;;5068073;28;20275;-46
2022/01/02 11:00:52;;;;;;;;;;;5.70;99.90;;;;;;5072165;28;19951;-47
2022/01/02 11:03:23;;;;;;;;;;;5.30;99.90;;;;;;5072792;28;19925;-47
2022/01/02 11:05:53;;;;;;;;;;;5.20;99.90;;;;;;5072214;28;19928;-46
2022/01/02 11:08:21;;;;;;;;;;;4.90;99.90;;;;;;5077565;28;20444;-48
2022/01/02 11:10:48;;;;;;;;;;;4.70;99.90;;;;;;5086704;28;20409;-48
2022/01/02 11:13:17;;;;;;;;;;;4.70;99.90;;;;;;5078269;28;19933;-48
2022/01/02 11:15:43;;;;;;;;;;;4.60;99.90;;;;;;5070530;28;19928;-47
2022/01/02 11:18:11;;;;;;;;;;;4.70;99.90;;;;;;5069997;28;19924;-49
2022/01/02 11:20:39;;;;;;;;;;;4.90;99.90;;;;;;5087927;28;19924;-48
2022/01/02 11:23:09;;;;;;;;;;;4.90;99.90;;;;;;5097433;28;19924;-47
2022/01/02 11:25:41;;;;;;;;;;;5.10;99.90;;;;;;5102047;28;19924;-49
2022/01/02 11:28:12;;;;;;;;;;;5.30;99.90;;;;;;5105807;28;19972;-48
2022/01/02 11:30:42;;;;;;;;;;;5.40;99.90;;;;;;5081127;28;19924;-48
2022/01/02 11:33:10;;;;;;;;;;;5.50;99.90;;;;;;5074379;28;20023;-47
2022/01/02 11:35:38;;;;;;;;;;;5.50;99.90;;;;;;5074005;28;19978;-48
2022/01/02 11:38:05;;;;;;;;;;;5.50;99.90;;;;;;5074039;28;19925;-48
2022/01/02 11:40:49;;;;;;;;;;;5.40;99.90;;;;;;5083878;28;19928;-47
2022/01/02 11:43:35;;;;;;;;;;;5.50;99.90;;;;;;5081586;28;19924;-48
2022/01/02 11:46:14;;;;;;;;;;;5.60;99.90;;;;;;5090798;28;20011;-48
2022/01/02 11:48:41;;;;;;;;;;;5.60;99.90;;;;;;5072822;28;19929;-47
2022/01/02 11:51:08;;;;;;;;;;;5.40;99.90;;;;;;5072331;28;19951;-48
2022/01/02 11:53:35;;;;;;;;;;;5.30;99.90;;;;;;5073216;28;19985;-48
2022/01/02 11:56:04;;;;;;;;;;;5.20;99.90;;;;;;5073027;28;20026;-48
2022/01/02 11:58:50;;;;;;;;;;;5.10;99.90;;;;;;5072029;28;19928;-48
2022/01/02 12:01:35;;;;;;;;;;;5.10;99.90;;;;;;5073225;28;19971;-51
2022/01/02 12:04:02;;;;;;;;;;;4.90;99.90;;;;;;5081118;28;19924;-48
2022/01/02 12:06:37;;;;;;;;;;;5.00;99.90;;;;;;5077458;28;19970;-47
2022/01/02 12:09:05;;;;;;;;;;;5.00;99.90;;;;;;5080513;28;20022;-48
2022/01/02 12:11:45;;;;;;;;;;;5.00;99.90;;;;;;5079209;28;19924;-48
2022/01/02 12:14:16;;;;;;;;;;;5.00;99.90;;;;;;5073935;28;19932;-48
2022/01/02 12:16:45;;;;;;;;;;;4.90;99.90;;;;;;5073867;28;19924;-49
2022/01/02 12:19:11;;;;;;;;;;;4.90;99.90;;;;;;5073088;28;19931;-48
2022/01/02 12:21:58;;;;;;;;;;;5.00;99.90;;;;;;5078703;28;20351;-48
2022/01/02 12:24:29;;;;;;;;;;;5.00;99.90;;;;;;5085572;28;19954;-49
2022/01/02 12:27:07;;;;;;;;;;;5.10;99.90;;;;;;5083463;28;19986;-48
2022/01/02 12:29:34;;;;;;;;;;;5.40;99.90;;;;;;5079541;28;19928;-48
2022/01/02 12:32:02;;;;;;;;;;;5.40;99.90;;;;;;5086455;28;20348;-47
2022/01/02 12:34:30;;;;;;;;;;;5.40;99.90;;;;;;5090830;28;19932;-48
2022/01/02 12:36:58;;;;;;;;;;;5.40;99.90;;;;;;5086188;28;19928;-47
2022/01/02 12:39:26;;;;;;;;;;;5.10;99.90;;;;;;5086081;28;19931;-48
2022/01/02 12:41:53;;;;;;;;;;;5.10;99.90;;;;;;5074211;28;19924;-49
2022/01/02 12:44:27;;;;;;;;;;;5.10;99.90;;;;;;5083930;28;19923;-48
2022/01/02 12:46:54;;;;;;;;;;;5.20;99.90;;;;;;5078915;28;20385;-49
2022/01/02 12:49:22;;;;;;;;;;;5.20;99.90;;;;;;5084132;28;19928;-47
2022/01/02 12:51:50;;;;;;;;;;;5.30;99.90;;;;;;5080813;28;19928;-48
2022/01/02 12:54:18;;;;;;;;;;;5.30;99.90;;;;;;5083639;28;19957;-48
2022/01/02 12:56:46;;;;;;;;;;;5.40;99.90;;;;;;5090257;28;19986;-49
2022/01/02 12:59:23;;;;;;;;;;;5.40;99.90;;;;;;5087794;28;19969;-48
2022/01/02 13:01:52;;;;;;;;;;;5.50;99.90;;;;;;5077893;28;19929;-47
2022/01/02 13:04:19;;;;;;;;;;;5.30;99.90;;;;;;5092512;28;20351;-48
2022/01/02 13:06:46;;;;;;;;;;;5.60;99.90;;;;;;5082440;28;20292;-48
2022/01/02 13:09:13;;;;;;;;;;;5.60;99.90;;;;;;5072172;28;19940;-49
2022/01/02 13:11:40;;;;;;;;;;;5.70;99.90;;;;;;5071164;28;19955;-49
2022/01/02 13:14:07;;;;;;;;;;;5.90;99.90;;;;;;5071493;28;19929;-49
2022/01/02 13:16:34;;;;;;;;;;;5.80;99.90;;;;;;5071741;28;20446;-48
2022/01/02 13:19:03;;;;;;;;;;;5.90;99.90;;;;;;5078904;28;19924;-49
2022/01/02 13:21:30;;;;;;;;;;;5.90;99.90;;;;;;5091703;28;19924;-48
2022/01/02 13:24:17;;;;;;;;;;;5.80;99.90;;;;;;5079124;28;19929;-49
2022/01/02 13:26:43;;;;;;;;;;;5.90;99.90;;;;;;5072039;28;19978;-48
2022/01/02 13:29:10;;;;;;;;;;;6.10;99.90;;;;;;5086250;28;19928;-48
2022/01/02 13:31:37;;;;;;;;;;;6.10;99.90;;;;;;5092257;28;20327;-49
2022/01/02 13:34:08;;;;;;;;;;;6.20;99.90;;;;;;5092200;28;19973;-48
2022/01/02 13:36:35;;;;;;;;;;;6.40;99.90;;;;;;5092340;28;19924;-49
2022/01/02 13:39:02;;;;;;;;;;;6.50;99.90;;;;;;5089129;28;19936;-49
2022/01/02 13:41:30;;;;;;;;;;;6.40;99.90;;;;;;5079201;28;19977;-49
2022/01/02 13:43:58;;;;;;;;;;;6.50;99.90;;;;;;5088727;28;20380;-50
2022/01/02 13:46:26;;;;;;;;;;;6.60;99.90;;;;;;5090160;28;20324;-48
2022/01/02 13:48:53;;;;;;;;;;;6.60;99.90;;;;;;5091732;28;20415;-50
2022/01/02 13:51:22;;;;;;;;;;;6.60;99.90;;;;;;5091832;28;20382;-50
2022/01/02 13:53:50;;;;;;;;;;;6.60;99.90;;;;;;5091650;28;19977;-49
2022/01/02 13:56:18;;;;;;;;;;;6.60;99.90;;;;;;5091904;28;20281;-48
2022/01/02 13:58:46;;;;;;;;;;;6.50;99.90;;;;;;5081651;28;19924;-49
2022/01/02 14:01:17;;;;;;;;;;;6.50;99.90;;;;;;5087741;28;20080;-49
2022/01/02 14:03:44;;;;;;;;;;;6.60;99.90;;;;;;5082871;28;19962;-49
2022/01/02 14:06:11;;;;;;;;;;;6.30;99.90;;;;;;5071694;28;19925;-49
2022/01/02 14:08:43;;;;;;;;;;;6.40;99.90;;;;;;5086042;28;20069;-49
2022/01/02 14:11:11;;;;;;;;;;;6.40;99.90;;;;;;5091603;28;20282;-50
2022/01/02 14:14:04;;;;;;;;;;;6.50;99.90;;;;;;5089482;28;19928;-49
2022/01/02 14:16:44;;;;;;;;;;;6.50;99.90;;;;;;5072700;28;19951;-49
2022/01/02 14:19:11;;;;;;;;;;;6.40;99.90;;;;;;5077586;28;20297;-49
2022/01/02 14:21:38;;;;;;;;;;;6.50;99.90;;;;;;5088889;28;20455;-49
2022/01/02 14:24:07;;;;;;;;;;;6.40;99.90;;;;;;5076711;28;19955;-49
2022/01/02 14:26:33;;;;;;;;;;;6.40;99.90;;;;;;5082834;28;19981;-49
2022/01/02 14:29:01;;;;;;;;;;;6.30;99.90;;;;;;5077453;28;19931;-49
2022/01/02 14:31:28;;;;;;;;;;;6.30;99.90;;;;;;5092314;22;19931;-50
2022/01/02 14:33:55;;;;;;;;;;;6.30;99.90;;;;;;5051589;28;19928;-50
2022/01/02 14:36:22;;;;;;;;;;;6.40;99.90;;;;;;5051236;28;19931;-50
2022/01/02 14:38:48;;;;;;;;;;;6.50;99.90;;;;;;5051270;28;19979;-49
2022/01/02 14:41:18;;;;;;;;;;;6.60;99.90;;;;;;5050099;28;19941;-50
2022/01/02 14:43:45;;;;;;;;;;;6.50;99.90;;;;;;5051584;28;19929;-50